sensor_id;sensor_type;location;lat;lon;timestamp;temperature;humidity
74869;DHT22;63419;42.262;12.210;2022-09-20T00:01:28;15.10;99.90
74869;DHT22;63419;42.262;12.210;2022-09-20T00:03:58;15.10;99.90
74869;DHT22;63419;42.262;12.210;2022-09-20T00:06:28;15.20;99.90
74869;DHT22;63419;42.262;12.210;2022-09-20T00:08:55;15.20;99.90
74869;DHT22;63419;42.262;12.210;2022-09-20T00:11:26;15.10;99.90
74869;DHT22;63419;42.262;12.210;2022-09-20T00:13:55;15.20;99.90
74869;DHT22;63419;42.262;12.210;2022-09-20T00:16:29;15.10;99.90
74869;DHT22;63419;42.262;12.210;2022-09-20T00:18:58;15.20;99.90
74869;DHT22;63419;42.262;12.210;2022-09-20T00:21:29;15.10;99.90
74869;DHT22;63419;42.262;12.210;2022-09-20T00:23:57;15.20;99.90
74869;DHT22;63419;42.262;12.210;2022-09-20T00:26:25;15.20;99.90
74869;DHT22;63419;42.262;12.210;2022-09-20T00:28:52;15.10;99.90
74869;DHT22;63419;42.262;12.210;2022-09-20T00:31:19;15.20;99.90
74869;DHT22;63419;42.262;12.210;2022-09-20T00:33:47;15.10;99.90
74869;DHT22;63419;42.262;12.210;2022-09-20T00:36:32;15.10;99.90
74869;DHT22;63419;42.262;12.210;2022-09-20T00:39:02;15.10;99.90
74869;DHT22;63419;42.262;12.210;2022-09-20T00:41:30;15.10;99.90
74869;DHT22;63419;42.262;12.210;2022-09-20T00:43:58;15.20;99.90
74869;DHT22;63419;42.262;12.210;2022-09-20T00:46:50;15.20;99.90
74869;DHT22;63419;42.262;12.210;2022-09-20T00:49:20;15.20;99.90
74869;DHT22;63419;42.262;12.210;2022-09-20T00:51:56;15.20;99.90
74869;DHT22;63419;42.262;12.210;2022-09-20T00:54:27;15.20;99.90
74869;DHT22;63419;42.262;12.210;2022-09-20T00:56:55;15.20;99.90
74869;DHT22;63419;42.262;12.210;2022-09-20T00:59:51;15.30;99.90
74869;DHT22;63419;42.262;12.210;2022-09-20T01:02:29;15.20;99.90
74869;DHT22;63419;42.262;12.210;2022-09-20T01:05:00;15.30;99.90
74869;DHT22;63419;42.262;12.210;2022-09-20T01:07:27;15.30;99.90
74869;DHT22;63419;42.262;12.210;2022-09-20T01:09:57;15.20;99.90
74869;DHT22;63419;42.262;12.210;2022-09-20T01:12:26;15.30;99.90
74869;DHT22;63419;42.262;12.210;2022-09-20T01:14:56;15.30;99.90
74869;DHT22;63419;42.262;12.210;2022-09-20T01:17:31;15.30;99.90
74869;DHT22;63419;42.262;12.210;2022-09-20T01:20:10;15.30;99.90
74869;DHT22;63419;42.262;12.210;2022-09-20T01:28:24;15.50;99.90
74869;DHT22;63419;42.262;12.210;2022-09-20T01:31:14;15.60;99.90
74869;DHT22;63419;42.262;12.210;2022-09-20T01:36:24;15.70;99.90
74869;DHT22;63419;42.262;12.210;2022-09-20T01:42:01;15.80;99.90
74869;DHT22;63419;42.262;12.210;2022-09-20T01:56:41;15.50;99.90
74869;DHT22;63419;42.262;12.210;2022-09-20T02:04:49;15.40;99.90
74869;DHT22;63419;42.262;12.210;2022-09-20T02:13:03;15.40;99.90
74869;DHT22;63419;42.262;12.210;2022-09-20T02:22:43;15.40;99.90
74869;DHT22;63419;42.262;12.210;2022-09-20T02:31:52;15.20;99.90
74869;DHT22;63419;42.262;12.210;2022-09-20T02:47:39;14.40;99.90
74869;DHT22;63419;42.262;12.210;2022-09-20T03:31:29;14.00;99.90
74869;DHT22;63419;42.262;12.210;2022-09-20T03:42:51;14.30;99.90
74869;DHT22;63419;42.262;12.210;2022-09-20T03:45:30;14.30;99.90
74869;DHT22;63419;42.262;12.210;2022-09-20T03:56:59;14.40;99.90
74869;DHT22;63419;42.262;12.210;2022-09-20T04:05:42;14.30;99.90
74869;DHT22;63419;42.262;12.210;2022-09-20T04:11:43;14.30;99.90
74869;DHT22;63419;42.262;12.210;2022-09-20T04:14:33;14.30;99.90
74869;DHT22;63419;42.262;12.210;2022-09-20T04:17:21;14.30;99.90
74869;DHT22;63419;42.262;12.210;2022-09-20T04:20:15;14.40;99.90
74869;DHT22;63419;42.262;12.210;2022-09-20T04:26:03;13.80;99.90
74869;DHT22;63419;42.262;12.210;2022-09-20T04:28:57;13.50;99.90
74869;DHT22;63419;42.262;12.210;2022-09-20T04:33:03;13.00;99.90
74869;DHT22;63419;42.262;12.210;2022-09-20T04:38:23;13.00;99.90
74869;DHT22;63419;42.262;12.210;2022-09-20T04:52:20;13.80;99.90
74869;DHT22;63419;42.262;12.210;2022-09-20T04:55:34;13.80;99.90
74869;DHT22;63419;42.262;12.210;2022-09-20T05:17:01;13.90;99.90
74869;DHT22;63419;42.262;12.210;2022-09-20T05:22:40;13.90;99.90
74869;DHT22;63419;42.262;12.210;2022-09-20T05:25:41;14.00;99.90
74869;DHT22;63419;42.262;12.210;2022-09-20T05:28:55;14.10;99.90
74869;DHT22;63419;42.262;12.210;2022-09-20T05:31:36;14.20;99.90
74869;DHT22;63419;42.262;12.210;2022-09-20T05:34:23;14.30;99.90
74869;DHT22;63419;42.262;12.210;2022-09-20T05:37:49;14.30;99.90
74869;DHT22;63419;42.262;12.210;2022-09-20T05:43:15;14.50;99.90
74869;DHT22;63419;42.262;12.210;2022-09-20T05:45:59;14.50;99.90
74869;DHT22;63419;42.262;12.210;2022-09-20T05:51:40;14.60;99.90
74869;DHT22;63419;42.262;12.210;2022-09-20T06:04:59;15.10;99.90
74869;DHT22;63419;42.262;12.210;2022-09-20T06:22:40;15.60;99.90
74869;DHT22;63419;42.262;12.210;2022-09-20T06:25:31;15.70;99.90
74869;DHT22;63419;42.262;12.210;2022-09-20T06:28:34;15.70;99.90
74869;DHT22;63419;42.262;12.210;2022-09-20T06:31:16;15.90;99.90
74869;DHT22;63419;42.262;12.210;2022-09-20T06:33:56;15.90;99.90
74869;DHT22;63419;42.262;12.210;2022-09-20T06:36:31;15.90;99.90
74869;DHT22;63419;42.262;12.210;2022-09-20T06:42:20;15.90;99.90
74869;DHT22;63419;42.262;12.210;2022-09-20T06:44:46;15.90;99.90
74869;DHT22;63419;42.262;12.210;2022-09-20T06:47:15;16.00;99.90
74869;DHT22;63419;42.262;12.210;2022-09-20T06:49:41;16.20;99.90
74869;DHT22;63419;42.262;12.210;2022-09-20T06:52:14;16.30;99.90
74869;DHT22;63419;42.262;12.210;2022-09-20T06:55:02;16.30;99.90
74869;DHT22;63419;42.262;12.210;2022-09-20T06:57:34;16.40;99.90
74869;DHT22;63419;42.262;12.210;2022-09-20T07:00:04;16.30;99.90
74869;DHT22;63419;42.262;12.210;2022-09-20T07:02:31;16.40;99.90
74869;DHT22;63419;42.262;12.210;2022-09-20T07:04:57;16.50;99.90
74869;DHT22;63419;42.262;12.210;2022-09-20T07:07:26;16.60;99.90
74869;DHT22;63419;42.262;12.210;2022-09-20T07:09:52;17.00;99.90
74869;DHT22;63419;42.262;12.210;2022-09-20T07:12:17;17.20;99.90
74869;DHT22;63419;42.262;12.210;2022-09-20T07:14:44;17.40;99.90
74869;DHT22;63419;42.262;12.210;2022-09-20T07:17:10;17.60;99.90
74869;DHT22;63419;42.262;12.210;2022-09-20T07:19:37;17.80;99.90
74869;DHT22;63419;42.262;12.210;2022-09-20T07:22:03;18.00;99.90
74869;DHT22;63419;42.262;12.210;2022-09-20T07:24:29;18.20;99.90
74869;DHT22;63419;42.262;12.210;2022-09-20T07:27:01;18.50;99.90
74869;DHT22;63419;42.262;12.210;2022-09-20T07:29:31;18.60;99.90
74869;DHT22;63419;42.262;12.210;2022-09-20T07:31:57;18.70;99.90
74869;DHT22;63419;42.262;12.210;2022-09-20T07:34:24;18.80;99.90
74869;DHT22;63419;42.262;12.210;2022-09-20T07:37:16;18.90;99.90
74869;DHT22;63419;42.262;12.210;2022-09-20T07:39:44;18.80;99.90
74869;DHT22;63419;42.262;12.210;2022-09-20T07:42:11;19.00;99.90
74869;DHT22;63419;42.262;12.210;2022-09-20T07:44:37;19.20;99.90
74869;DHT22;63419;42.262;12.210;2022-09-20T07:47:07;19.20;99.90
74869;DHT22;63419;42.262;12.210;2022-09-20T07:49:35;19.20;99.90
74869;DHT22;63419;42.262;12.210;2022-09-20T07:52:02;19.30;99.90
74869;DHT22;63419;42.262;12.210;2022-09-20T07:54:28;19.40;99.90
74869;DHT22;63419;42.262;12.210;2022-09-20T07:56:54;19.60;99.90
74869;DHT22;63419;42.262;12.210;2022-09-20T07:59:20;19.60;99.90
74869;DHT22;63419;42.262;12.210;2022-09-20T08:01:51;19.50;99.90
74869;DHT22;63419;42.262;12.210;2022-09-20T08:04:17;19.50;99.90
74869;DHT22;63419;42.262;12.210;2022-09-20T08:06:44;19.80;99.90
74869;DHT22;63419;42.262;12.210;2022-09-20T08:09:12;19.70;99.90
74869;DHT22;63419;42.262;12.210;2022-09-20T08:11:40;19.80;99.90
74869;DHT22;63419;42.262;12.210;2022-09-20T08:14:12;19.90;99.90
74869;DHT22;63419;42.262;12.210;2022-09-20T08:16:47;20.00;99.90
74869;DHT22;63419;42.262;12.210;2022-09-20T08:19:20;20.10;99.90
74869;DHT22;63419;42.262;12.210;2022-09-20T08:21:48;20.20;99.90
74869;DHT22;63419;42.262;12.210;2022-09-20T08:24:19;20.30;99.90
74869;DHT22;63419;42.262;12.210;2022-09-20T08:26:53;20.50;99.90
74869;DHT22;63419;42.262;12.210;2022-09-20T08:29:19;20.50;99.90
74869;DHT22;63419;42.262;12.210;2022-09-20T08:31:45;20.50;99.90
74869;DHT22;63419;42.262;12.210;2022-09-20T08:34:14;20.60;99.90
74869;DHT22;63419;42.262;12.210;2022-09-20T08:36:44;20.80;99.90
74869;DHT22;63419;42.262;12.210;2022-09-20T08:39:13;20.90;99.90
74869;DHT22;63419;42.262;12.210;2022-09-20T08:41:45;21.10;99.90
74869;DHT22;63419;42.262;12.210;2022-09-20T08:44:31;21.10;99.90
74869;DHT22;63419;42.262;12.210;2022-09-20T08:47:21;21.30;99.90
74869;DHT22;63419;42.262;12.210;2022-09-20T08:49:51;21.10;99.90
74869;DHT22;63419;42.262;12.210;2022-09-20T08:52:26;21.30;99.90
74869;DHT22;63419;42.262;12.210;2022-09-20T08:54:56;21.60;99.90
74869;DHT22;63419;42.262;12.210;2022-09-20T08:57:27;21.70;99.90
74869;DHT22;63419;42.262;12.210;2022-09-20T09:00:02;21.70;99.90
74869;DHT22;63419;42.262;12.210;2022-09-20T09:02:31;21.90;99.90
74869;DHT22;63419;42.262;12.210;2022-09-20T09:04:59;22.20;99.90
74869;DHT22;63419;42.262;12.210;2022-09-20T09:07:26;22.40;99.90
74869;DHT22;63419;42.262;12.210;2022-09-20T09:09:54;22.60;99.90
74869;DHT22;63419;42.262;12.210;2022-09-20T09:12:26;22.70;99.90
74869;DHT22;63419;42.262;12.210;2022-09-20T09:15:24;22.90;99.90
74869;DHT22;63419;42.262;12.210;2022-09-20T09:17:57;22.60;99.90
74869;DHT22;63419;42.262;12.210;2022-09-20T09:20:23;22.70;99.90
74869;DHT22;63419;42.262;12.210;2022-09-20T09:23:01;22.90;99.90
74869;DHT22;63419;42.262;12.210;2022-09-20T09:25:37;23.10;99.90
74869;DHT22;63419;42.262;12.210;2022-09-20T09:30:38;23.50;99.90
74869;DHT22;63419;42.262;12.210;2022-09-20T09:38:35;23.70;99.90
74869;DHT22;63419;42.262;12.210;2022-09-20T09:44:24;23.90;99.90
74869;DHT22;63419;42.262;12.210;2022-09-20T09:46:57;23.90;99.90
74869;DHT22;63419;42.262;12.210;2022-09-20T09:49:30;24.30;99.90
74869;DHT22;63419;42.262;12.210;2022-09-20T09:52:26;23.90;99.90
74869;DHT22;63419;42.262;12.210;2022-09-20T09:54:58;24.10;99.90
74869;DHT22;63419;42.262;12.210;2022-09-20T09:58:03;24.50;99.90
74869;DHT22;63419;42.262;12.210;2022-09-20T10:00:51;25.00;99.90
74869;DHT22;63419;42.262;12.210;2022-09-20T10:06:23;25.80;99.90
74869;DHT22;63419;42.262;12.210;2022-09-20T10:09:05;24.40;99.90
74869;DHT22;63419;42.262;12.210;2022-09-20T10:26:47;26.10;99.90
74869;DHT22;63419;42.262;12.210;2022-09-20T10:38:43;27.10;99.90
74869;DHT22;63419;42.262;12.210;2022-09-20T10:41:38;27.50;99.40
74869;DHT22;63419;42.262;12.210;2022-09-20T10:47:14;27.00;98.10
74869;DHT22;63419;42.262;12.210;2022-09-20T10:52:56;27.10;98.70
74869;DHT22;63419;42.262;12.210;2022-09-20T10:56:27;27.50;98.60
74869;DHT22;63419;42.262;12.210;2022-09-20T11:08:35;30.30;94.00
74869;DHT22;63419;42.262;12.210;2022-09-20T11:19:11;31.20;90.70
74869;DHT22;63419;42.262;12.210;2022-09-20T11:22:17;31.10;90.30
74869;DHT22;63419;42.262;12.210;2022-09-20T11:27:56;32.30;88.50
74869;DHT22;63419;42.262;12.210;2022-09-20T11:30:29;33.30;84.30
74869;DHT22;63419;42.262;12.210;2022-09-20T11:36:02;32.20;80.30
74869;DHT22;63419;42.262;12.210;2022-09-20T11:41:27;29.60;89.90
74869;DHT22;63419;42.262;12.210;2022-09-20T11:44:18;30.90;88.20
74869;DHT22;63419;42.262;12.210;2022-09-20T11:47:05;32.00;86.90
74869;DHT22;63419;42.262;12.210;2022-09-20T11:58:51;30.90;80.60
74869;DHT22;63419;42.262;12.210;2022-09-20T12:01:26;32.00;79.30
74869;DHT22;63419;42.262;12.210;2022-09-20T12:04:03;32.90;78.20
74869;DHT22;63419;42.262;12.210;2022-09-20T12:06:38;33.70;75.40
74869;DHT22;63419;42.262;12.210;2022-09-20T12:09:55;32.70;75.50
74869;DHT22;63419;42.262;12.210;2022-09-20T12:12:45;34.40;75.80
74869;DHT22;63419;42.262;12.210;2022-09-20T12:26:09;32.80;75.10
74869;DHT22;63419;42.262;12.210;2022-09-20T12:28:43;32.00;74.70
74869;DHT22;63419;42.262;12.210;2022-09-20T12:39:28;31.20;76.30
74869;DHT22;63419;42.262;12.210;2022-09-20T12:44:45;28.70;76.00
74869;DHT22;63419;42.262;12.210;2022-09-20T12:47:34;28.60;78.40
74869;DHT22;63419;42.262;12.210;2022-09-20T12:50:09;28.70;77.80
74869;DHT22;63419;42.262;12.210;2022-09-20T12:52:57;28.50;79.40
74869;DHT22;63419;42.262;12.210;2022-09-20T12:55:44;28.20;82.90
74869;DHT22;63419;42.262;12.210;2022-09-20T12:58:50;27.90;79.50
74869;DHT22;63419;42.262;12.210;2022-09-20T13:03:48;30.80;77.20
74869;DHT22;63419;42.262;12.210;2022-09-20T13:14:31;28.70;80.50
74869;DHT22;63419;42.262;12.210;2022-09-20T13:17:23;27.90;81.70
74869;DHT22;63419;42.262;12.210;2022-09-20T13:19:54;27.90;82.70
74869;DHT22;63419;42.262;12.210;2022-09-20T13:22:34;28.20;82.80
74869;DHT22;63419;42.262;12.210;2022-09-20T13:25:27;28.60;80.80
74869;DHT22;63419;42.262;12.210;2022-09-20T13:30:36;27.80;79.50
74869;DHT22;63419;42.262;12.210;2022-09-20T13:33:23;26.80;84.10
74869;DHT22;63419;42.262;12.210;2022-09-20T13:35:57;26.80;82.40
74869;DHT22;63419;42.262;12.210;2022-09-20T13:38:29;26.10;83.90
74869;DHT22;63419;42.262;12.210;2022-09-20T13:41:09;26.30;85.70
74869;DHT22;63419;42.262;12.210;2022-09-20T13:43:44;26.30;84.70
74869;DHT22;63419;42.262;12.210;2022-09-20T13:46:15;26.30;84.40
74869;DHT22;63419;42.262;12.210;2022-09-20T13:48:51;26.10;82.60
74869;DHT22;63419;42.262;12.210;2022-09-20T13:51:34;26.40;85.30
74869;DHT22;63419;42.262;12.210;2022-09-20T13:54:30;28.60;82.70
74869;DHT22;63419;42.262;12.210;2022-09-20T13:57:11;29.50;77.00
74869;DHT22;63419;42.262;12.210;2022-09-20T13:59:46;28.70;81.10
74869;DHT22;63419;42.262;12.210;2022-09-20T14:02:28;28.80;81.40
74869;DHT22;63419;42.262;12.210;2022-09-20T14:05:02;27.40;80.60
74869;DHT22;63419;42.262;12.210;2022-09-20T14:07:31;26.90;84.70
74869;DHT22;63419;42.262;12.210;2022-09-20T14:09:58;26.90;83.50
74869;DHT22;63419;42.262;12.210;2022-09-20T14:12:26;26.80;84.50
74869;DHT22;63419;42.262;12.210;2022-09-20T14:15:14;26.00;83.70
74869;DHT22;63419;42.262;12.210;2022-09-20T14:17:40;24.60;90.30
74869;DHT22;63419;42.262;12.210;2022-09-20T14:20:13;23.40;93.40
74869;DHT22;63419;42.262;12.210;2022-09-20T14:22:47;23.10;95.00
74869;DHT22;63419;42.262;12.210;2022-09-20T14:27:40;23.00;97.80
74869;DHT22;63419;42.262;12.210;2022-09-20T14:30:31;22.30;99.90
74869;DHT22;63419;42.262;12.210;2022-09-20T14:33:04;22.20;99.90
74869;DHT22;63419;42.262;12.210;2022-09-20T14:35:37;22.50;99.90
74869;DHT22;63419;42.262;12.210;2022-09-20T14:38:33;22.20;99.90
74869;DHT22;63419;42.262;12.210;2022-09-20T14:41:02;22.40;99.90
74869;DHT22;63419;42.262;12.210;2022-09-20T14:43:33;22.80;99.90
74869;DHT22;63419;42.262;12.210;2022-09-20T14:46:14;22.90;99.10
74869;DHT22;63419;42.262;12.210;2022-09-20T14:48:44;23.50;96.80
74869;DHT22;63419;42.262;12.210;2022-09-20T14:53:45;24.10;98.10
74869;DHT22;63419;42.262;12.210;2022-09-20T14:56:25;23.90;97.90
74869;DHT22;63419;42.262;12.210;2022-09-20T14:59:20;23.90;98.00
74869;DHT22;63419;42.262;12.210;2022-09-20T15:02:10;25.70;95.40
74869;DHT22;63419;42.262;12.210;2022-09-20T15:04:40;27.30;92.40
74869;DHT22;63419;42.262;12.210;2022-09-20T15:07:15;26.40;91.00
74869;DHT22;63419;42.262;12.210;2022-09-20T15:09:42;26.60;90.60
74869;DHT22;63419;42.262;12.210;2022-09-20T15:12:17;25.40;90.20
74869;DHT22;63419;42.262;12.210;2022-09-20T15:14:45;25.50;90.70
74869;DHT22;63419;42.262;12.210;2022-09-20T15:17:17;25.40;91.90
74869;DHT22;63419;42.262;12.210;2022-09-20T15:19:46;25.00;93.90
74869;DHT22;63419;42.262;12.210;2022-09-20T15:22:14;24.80;93.80
74869;DHT22;63419;42.262;12.210;2022-09-20T15:24:43;24.70;93.90
74869;DHT22;63419;42.262;12.210;2022-09-20T15:27:11;24.30;94.10
74869;DHT22;63419;42.262;12.210;2022-09-20T15:29:40;24.20;94.80
74869;DHT22;63419;42.262;12.210;2022-09-20T15:32:09;24.10;94.30
74869;DHT22;63419;42.262;12.210;2022-09-20T15:34:35;23.70;95.60
74869;DHT22;63419;42.262;12.210;2022-09-20T15:37:01;23.30;96.50
74869;DHT22;63419;42.262;12.210;2022-09-20T15:39:27;23.00;96.80
74869;DHT22;63419;42.262;12.210;2022-09-20T15:41:55;22.80;96.90
74869;DHT22;63419;42.262;12.210;2022-09-20T15:44:21;22.60;98.40
74869;DHT22;63419;42.262;12.210;2022-09-20T15:46:49;22.60;99.00
74869;DHT22;63419;42.262;12.210;2022-09-20T15:49:18;22.70;98.30
74869;DHT22;63419;42.262;12.210;2022-09-20T15:51:45;22.80;98.60
74869;DHT22;63419;42.262;12.210;2022-09-20T15:54:13;23.10;98.30
74869;DHT22;63419;42.262;12.210;2022-09-20T15:56:44;23.70;97.90
74869;DHT22;63419;42.262;12.210;2022-09-20T15:59:11;25.00;96.50
74869;DHT22;63419;42.262;12.210;2022-09-20T16:01:41;26.30;93.40
74869;DHT22;63419;42.262;12.210;2022-09-20T16:04:17;26.60;93.50
74869;DHT22;63419;42.262;12.210;2022-09-20T16:06:46;27.20;92.80
74869;DHT22;63419;42.262;12.210;2022-09-20T16:09:14;27.80;91.70
74869;DHT22;63419;42.262;12.210;2022-09-20T16:11:42;29.10;90.30
74869;DHT22;63419;42.262;12.210;2022-09-20T16:14:08;27.90;87.10
74869;DHT22;63419;42.262;12.210;2022-09-20T16:16:34;29.10;87.10
74869;DHT22;63419;42.262;12.210;2022-09-20T16:19:00;28.80;82.50
74869;DHT22;63419;42.262;12.210;2022-09-20T16:21:44;29.20;84.80
74869;DHT22;63419;42.262;12.210;2022-09-20T16:24:24;30.50;82.30
74869;DHT22;63419;42.262;12.210;2022-09-20T16:26:52;31.10;78.00
74869;DHT22;63419;42.262;12.210;2022-09-20T16:29:19;30.90;76.60
74869;DHT22;63419;42.262;12.210;2022-09-20T16:31:48;30.50;77.00
74869;DHT22;63419;42.262;12.210;2022-09-20T16:36:50;29.10;81.10
74869;DHT22;63419;42.262;12.210;2022-09-20T16:39:19;29.10;78.80
74869;DHT22;63419;42.262;12.210;2022-09-20T16:41:55;28.80;79.10
74869;DHT22;63419;42.262;12.210;2022-09-20T16:44:39;27.30;81.00
74869;DHT22;63419;42.262;12.210;2022-09-20T16:47:13;27.20;81.50
74869;DHT22;63419;42.262;12.210;2022-09-20T16:49:49;26.60;81.50
74869;DHT22;63419;42.262;12.210;2022-09-20T16:52:20;25.90;84.00
74869;DHT22;63419;42.262;12.210;2022-09-20T16:54:50;25.40;88.10
74869;DHT22;63419;42.262;12.210;2022-09-20T16:57:16;22.70;96.50
74869;DHT22;63419;42.262;12.210;2022-09-20T16:59:42;22.40;98.80
74869;DHT22;63419;42.262;12.210;2022-09-20T17:02:13;22.20;97.60
74869;DHT22;63419;42.262;12.210;2022-09-20T17:04:43;22.10;98.30
74869;DHT22;63419;42.262;12.210;2022-09-20T17:07:12;21.40;98.70
74869;DHT22;63419;42.262;12.210;2022-09-20T17:09:38;20.90;98.90
74869;DHT22;63419;42.262;12.210;2022-09-20T17:12:04;20.40;96.20
74869;DHT22;63419;42.262;12.210;2022-09-20T17:14:33;20.00;97.30
74869;DHT22;63419;42.262;12.210;2022-09-20T17:16:59;19.60;97.00
74869;DHT22;63419;42.262;12.210;2022-09-20T17:19:25;19.50;96.40
74869;DHT22;63419;42.262;12.210;2022-09-20T17:21:54;19.50;96.90
74869;DHT22;63419;42.262;12.210;2022-09-20T17:24:22;19.30;96.20
74869;DHT22;63419;42.262;12.210;2022-09-20T17:26:54;19.20;98.70
74869;DHT22;63419;42.262;12.210;2022-09-20T17:29:20;19.20;99.90
74869;DHT22;63419;42.262;12.210;2022-09-20T17:31:49;18.90;99.90
74869;DHT22;63419;42.262;12.210;2022-09-20T17:34:17;18.80;95.20
74869;DHT22;63419;42.262;12.210;2022-09-20T17:36:46;18.90;93.80
74869;DHT22;63419;42.262;12.210;2022-09-20T17:39:13;18.80;93.90
74869;DHT22;63419;42.262;12.210;2022-09-20T17:44:31;18.60;93.20
74869;DHT22;63419;42.262;12.210;2022-09-20T17:47:01;18.50;92.50
74869;DHT22;63419;42.262;12.210;2022-09-20T17:49:27;18.40;93.10
74869;DHT22;63419;42.262;12.210;2022-09-20T17:51:54;18.40;93.70
74869;DHT22;63419;42.262;12.210;2022-09-20T17:54:21;18.20;93.80
74869;DHT22;63419;42.262;12.210;2022-09-20T17:56:51;18.20;93.40
74869;DHT22;63419;42.262;12.210;2022-09-20T17:59:20;18.10;93.70
74869;DHT22;63419;42.262;12.210;2022-09-20T18:01:48;18.10;93.10
74869;DHT22;63419;42.262;12.210;2022-09-20T18:04:16;18.20;92.80
74869;DHT22;63419;42.262;12.210;2022-09-20T18:06:50;18.10;93.00
74869;DHT22;63419;42.262;12.210;2022-09-20T18:09:19;18.00;93.60
74869;DHT22;63419;42.262;12.210;2022-09-20T18:11:51;17.80;94.30
74869;DHT22;63419;42.262;12.210;2022-09-20T18:14:24;17.80;93.60
74869;DHT22;63419;42.262;12.210;2022-09-20T18:16:55;17.70;93.50
74869;DHT22;63419;42.262;12.210;2022-09-20T18:19:25;17.70;94.50
74869;DHT22;63419;42.262;12.210;2022-09-20T18:21:57;17.60;94.60
74869;DHT22;63419;42.262;12.210;2022-09-20T18:24:24;17.60;94.50
74869;DHT22;63419;42.262;12.210;2022-09-20T18:26:50;17.40;94.60
74869;DHT22;63419;42.262;12.210;2022-09-20T18:29:17;17.50;94.10
74869;DHT22;63419;42.262;12.210;2022-09-20T18:31:48;17.40;94.50
74869;DHT22;63419;42.262;12.210;2022-09-20T18:34:22;17.30;94.60
74869;DHT22;63419;42.262;12.210;2022-09-20T18:36:59;17.40;94.90
74869;DHT22;63419;42.262;12.210;2022-09-20T18:39:27;17.40;95.00
74869;DHT22;63419;42.262;12.210;2022-09-20T18:41:56;17.40;95.10
74869;DHT22;63419;42.262;12.210;2022-09-20T18:44:25;17.50;95.40
74869;DHT22;63419;42.262;12.210;2022-09-20T18:46:53;17.60;95.30
74869;DHT22;63419;42.262;12.210;2022-09-20T18:49:20;17.50;95.50
74869;DHT22;63419;42.262;12.210;2022-09-20T18:51:48;17.50;95.90
74869;DHT22;63419;42.262;12.210;2022-09-20T18:54:14;17.40;96.30
74869;DHT22;63419;42.262;12.210;2022-09-20T18:56:42;17.40;96.40
74869;DHT22;63419;42.262;12.210;2022-09-20T18:59:19;17.40;96.40
74869;DHT22;63419;42.262;12.210;2022-09-20T19:08:05;17.40;97.20
74869;DHT22;63419;42.262;12.210;2022-09-20T19:11:10;17.40;97.30
74869;DHT22;63419;42.262;12.210;2022-09-20T19:14:05;17.30;97.60
74869;DHT22;63419;42.262;12.210;2022-09-20T19:16:38;17.20;97.60
74869;DHT22;63419;42.262;12.210;2022-09-20T19:25:21;16.80;98.50
74869;DHT22;63419;42.262;12.210;2022-09-20T19:27:57;16.80;98.30
74869;DHT22;63419;42.262;12.210;2022-09-20T19:30:26;16.90;98.50
74869;DHT22;63419;42.262;12.210;2022-09-20T19:32:53;16.90;97.70
74869;DHT22;63419;42.262;12.210;2022-09-20T19:35:23;16.90;97.80
74869;DHT22;63419;42.262;12.210;2022-09-20T19:38:10;16.90;97.80
74869;DHT22;63419;42.262;12.210;2022-09-20T19:44:31;16.90;97.50
74869;DHT22;63419;42.262;12.210;2022-09-20T19:50:22;17.00;96.20
74869;DHT22;63419;42.262;12.210;2022-09-20T19:53:01;17.00;96.00
74869;DHT22;63419;42.262;12.210;2022-09-20T19:55:34;16.90;96.30
74869;DHT22;63419;42.262;12.210;2022-09-20T19:58:01;16.90;96.20
74869;DHT22;63419;42.262;12.210;2022-09-20T20:00:30;16.70;96.50
74869;DHT22;63419;42.262;12.210;2022-09-20T20:02:57;16.60;96.50
74869;DHT22;63419;42.262;12.210;2022-09-20T20:05:26;16.50;96.70
74869;DHT22;63419;42.262;12.210;2022-09-20T20:22:40;16.40;97.20
74869;DHT22;63419;42.262;12.210;2022-09-20T20:28:13;16.30;97.10
74869;DHT22;63419;42.262;12.210;2022-09-20T20:30:39;16.30;97.00
74869;DHT22;63419;42.262;12.210;2022-09-20T20:33:06;16.20;97.00
74869;DHT22;63419;42.262;12.210;2022-09-20T20:35:32;16.20;97.00
74869;DHT22;63419;42.262;12.210;2022-09-20T20:37:59;16.10;97.10
74869;DHT22;63419;42.262;12.210;2022-09-20T20:40:25;16.00;97.50
74869;DHT22;63419;42.262;12.210;2022-09-20T20:42:56;16.00;97.30
74869;DHT22;63419;42.262;12.210;2022-09-20T20:45:26;15.90;97.50
74869;DHT22;63419;42.262;12.210;2022-09-20T20:47:58;15.90;97.80
74869;DHT22;63419;42.262;12.210;2022-09-20T20:50:27;15.80;97.80
74869;DHT22;63419;42.262;12.210;2022-09-20T20:52:54;15.80;97.70
74869;DHT22;63419;42.262;12.210;2022-09-20T20:55:24;15.90;97.50
74869;DHT22;63419;42.262;12.210;2022-09-20T20:57:51;15.90;96.90
74869;DHT22;63419;42.262;12.210;2022-09-20T21:00:24;15.90;96.60
74869;DHT22;63419;42.262;12.210;2022-09-20T21:02:59;15.90;96.70
74869;DHT22;63419;42.262;12.210;2022-09-20T21:05:29;15.90;96.50
74869;DHT22;63419;42.262;12.210;2022-09-20T21:07:57;15.90;96.80
74869;DHT22;63419;42.262;12.210;2022-09-20T21:10:24;15.90;96.90
74869;DHT22;63419;42.262;12.210;2022-09-20T21:12:53;15.90;96.50
74869;DHT22;63419;42.262;12.210;2022-09-20T21:15:22;15.90;96.40
74869;DHT22;63419;42.262;12.210;2022-09-20T21:17:54;15.90;96.60
74869;DHT22;63419;42.262;12.210;2022-09-20T21:20:20;16.00;96.20
74869;DHT22;63419;42.262;12.210;2022-09-20T21:22:46;15.90;96.30
74869;DHT22;63419;42.262;12.210;2022-09-20T21:25:12;15.90;95.90
74869;DHT22;63419;42.262;12.210;2022-09-20T21:27:38;16.00;95.50
74869;DHT22;63419;42.262;12.210;2022-09-20T21:30:05;16.00;95.00
74869;DHT22;63419;42.262;12.210;2022-09-20T21:32:31;16.10;94.90
74869;DHT22;63419;42.262;12.210;2022-09-20T21:34:58;16.00;94.50
74869;DHT22;63419;42.262;12.210;2022-09-20T21:37:25;16.00;94.40
74869;DHT22;63419;42.262;12.210;2022-09-20T21:39:51;16.00;94.70
74869;DHT22;63419;42.262;12.210;2022-09-20T21:42:18;16.00;94.50
74869;DHT22;63419;42.262;12.210;2022-09-20T21:44:53;16.00;94.50
74869;DHT22;63419;42.262;12.210;2022-09-20T21:47:25;16.00;94.10
74869;DHT22;63419;42.262;12.210;2022-09-20T21:49:51;16.00;93.40
74869;DHT22;63419;42.262;12.210;2022-09-20T21:52:23;16.00;92.90
74869;DHT22;63419;42.262;12.210;2022-09-20T21:54:49;16.10;92.60
74869;DHT22;63419;42.262;12.210;2022-09-20T21:57:16;16.10;92.60
74869;DHT22;63419;42.262;12.210;2022-09-20T21:59:43;16.10;92.40
74869;DHT22;63419;42.262;12.210;2022-09-20T22:02:09;16.10;92.00
74869;DHT22;63419;42.262;12.210;2022-09-20T22:04:35;16.20;91.90